createdAt,value
2019-03-26T00:00:32.047Z,13.4
2019-03-26T00:01:33.288Z,13.1
2019-03-26T00:02:34.534Z,13.3
2019-03-26T00:03:38.194Z,13.4
2019-03-26T00:04:39.500Z,13.5
2019-03-26T00:05:40.754Z,13.5
2019-03-26T00:06:42.022Z,13.3
2019-03-26T00:07:43.288Z,13.4
2019-03-26T00:08:45.740Z,13.4
2019-03-26T00:09:49.469Z,13.3
2019-03-26T00:10:50.713Z,13.3
2019-03-26T00:11:51.953Z,13.3
2019-03-26T00:12:53.221Z,13.3
2019-03-26T00:13:56.325Z,13.1
2019-03-26T00:14:58.884Z,13.1
2019-03-26T00:16:00.846Z,13.1
2019-03-26T00:17:02.072Z,13.1
2019-03-26T00:18:03.319Z,13.3
2019-03-26T00:19:04.581Z,13.3
2019-03-26T00:20:06.188Z,13.1
2019-03-26T00:21:08.775Z,13.4
2019-03-26T00:22:10.031Z,13.3
2019-03-26T00:23:11.903Z,13.2
2019-03-26T00:24:13.129Z,12.6
2019-03-26T00:25:14.381Z,13.1
2019-03-26T00:26:15.593Z,13.1
2019-03-26T00:27:16.821Z,13
2019-03-26T00:28:18.273Z,13
2019-03-26T00:29:19.506Z,13.1
2019-03-26T00:30:20.759Z,12.7
2019-03-26T00:31:22.015Z,12.5
2019-03-26T00:32:23.699Z,12.4
2019-03-26T00:33:35.606Z,12.6
2019-03-26T00:34:38.321Z,12.8
2019-03-26T00:35:39.699Z,13
2019-03-26T00:36:40.925Z,13.1
2019-03-26T00:37:42.151Z,12.9
2019-03-26T00:38:44.618Z,13
2019-03-26T00:39:46.171Z,12.9
2019-03-26T00:40:47.477Z,12.6
2019-03-26T00:41:48.702Z,12.7
2019-03-26T00:42:49.929Z,12.6
2019-03-26T00:43:51.150Z,12.4
2019-03-26T00:44:52.445Z,12.3
2019-03-26T00:45:55.981Z,12.6
2019-03-26T00:46:57.210Z,12.4
2019-03-26T00:47:58.427Z,12.4
2019-03-26T00:48:59.647Z,12.5
2019-03-26T00:50:00.871Z,12.6
2019-03-26T00:51:02.189Z,12.4
2019-03-26T00:52:03.440Z,12.5
2019-03-26T00:53:04.677Z,12.3
2019-03-26T00:54:05.907Z,12.3
2019-03-26T00:55:07.106Z,12.4
2019-03-26T00:56:08.346Z,12.4
2019-03-26T00:57:10.768Z,12.4
2019-03-26T00:58:14.415Z,12.6
2019-03-26T00:59:15.626Z,12.6
2019-03-26T01:00:16.856Z,12.5
2019-03-26T01:01:18.504Z,12.4
2019-03-26T01:02:19.743Z,12.4
2019-03-26T01:03:20.966Z,12.6
2019-03-26T01:04:32.008Z,12.5
2019-03-26T01:05:34.255Z,12.6
2019-03-26T01:06:35.851Z,12.7
2019-03-26T01:07:37.087Z,12.6
2019-03-26T01:08:38.298Z,12.1
2019-03-26T01:09:39.527Z,11.9
2019-03-26T01:10:40.746Z,12.3
2019-03-26T01:11:57.460Z,12.2
2019-03-26T01:12:58.697Z,12.4
2019-03-26T01:14:01.282Z,12.4
2019-03-26T01:15:03.618Z,12.1
2019-03-26T01:16:04.826Z,12
2019-03-26T01:17:06.062Z,12.1
2019-03-26T01:18:07.281Z,12.2
2019-03-26T01:19:08.504Z,12.1
2019-03-26T01:20:09.735Z,11.9
2019-03-26T01:21:10.959Z,11.8
2019-03-26T01:22:12.242Z,11.9
2019-03-26T01:23:13.816Z,11.6
2019-03-26T01:24:15.036Z,11.9
2019-03-26T01:25:16.254Z,12.1
2019-03-26T01:26:17.474Z,12.1
2019-03-26T01:27:18.763Z,11.7
2019-03-26T01:28:19.975Z,11.5
2019-03-26T01:29:21.194Z,10.9
2019-03-26T01:30:22.410Z,11
2019-03-26T01:31:23.614Z,11.4
2019-03-26T01:32:24.862Z,11.3
2019-03-26T01:33:26.093Z,11.1
2019-03-26T01:34:27.823Z,11.3
2019-03-26T01:35:29.062Z,11.3
2019-03-26T01:36:30.282Z,11.5
2019-03-26T01:37:31.543Z,11.4
2019-03-26T01:38:32.772Z,11.4
2019-03-26T01:39:33.987Z,11.3
2019-03-26T01:40:35.214Z,11.5
2019-03-26T01:41:36.430Z,11.4
2019-03-26T01:42:37.694Z,11.4
2019-03-26T01:43:38.926Z,11.4
2019-03-26T01:44:40.366Z,11.4
2019-03-26T01:45:41.594Z,11.6
2019-03-26T01:46:42.810Z,11.4
2019-03-26T01:47:44.054Z,11.5
2019-03-26T01:48:45.271Z,11.4
2019-03-26T01:49:46.520Z,11.4
2019-03-26T01:50:47.772Z,11.6
2019-03-26T01:51:49.007Z,11.3
2019-03-26T01:52:50.286Z,11
2019-03-26T01:53:51.502Z,11.3
2019-03-26T01:54:52.723Z,11.3
2019-03-26T01:55:53.948Z,11.1
2019-03-26T01:56:55.168Z,11.3
2019-03-26T01:57:56.418Z,11.6
2019-03-26T01:58:57.644Z,11.6
2019-03-26T01:59:58.898Z,11.1
2019-03-26T02:01:00.128Z,10.8
2019-03-26T02:02:01.346Z,10.7
2019-03-26T02:03:02.609Z,10.6
2019-03-26T02:04:03.826Z,10.9
2019-03-26T02:05:05.043Z,10.9
2019-03-26T02:06:06.300Z,10.7
2019-03-26T02:07:07.522Z,10.9
2019-03-26T02:08:08.807Z,10.9
2019-03-26T02:09:10.030Z,10.8
2019-03-26T02:10:11.250Z,10.7
2019-03-26T02:11:12.564Z,10.6
2019-03-26T02:12:13.789Z,10.7
2019-03-26T02:13:15.044Z,11.1
2019-03-26T02:14:16.250Z,11.3
2019-03-26T02:15:17.466Z,11.1
2019-03-26T02:16:18.692Z,11
2019-03-26T02:17:19.914Z,11.1
2019-03-26T02:18:21.163Z,10.8
2019-03-26T02:19:22.393Z,10.8
2019-03-26T02:20:23.622Z,10.7
2019-03-26T02:21:24.848Z,10.6
2019-03-26T02:22:26.066Z,10.7
2019-03-26T02:23:27.762Z,10.6
2019-03-26T02:24:28.988Z,10.3
2019-03-26T02:25:30.209Z,10.6
2019-03-26T02:26:31.445Z,10.7
2019-03-26T02:27:32.670Z,10.7
2019-03-26T02:28:33.930Z,10.5
2019-03-26T02:29:35.152Z,10.1
2019-03-26T02:30:36.391Z,9.9
2019-03-26T02:31:37.618Z,10
2019-03-26T02:32:38.838Z,9.9
2019-03-26T02:33:40.077Z,10
2019-03-26T02:34:41.300Z,9.9
2019-03-26T02:35:42.524Z,10.1
2019-03-26T02:36:43.754Z,10.1
2019-03-26T02:37:44.974Z,10.5
2019-03-26T02:38:46.705Z,10.8
2019-03-26T02:39:47.942Z,10.4
2019-03-26T02:40:49.195Z,10.4
2019-03-26T02:41:50.415Z,10.5
2019-03-26T02:42:51.653Z,10.8
2019-03-26T02:43:52.910Z,10.9
2019-03-26T02:44:54.269Z,10.9
2019-03-26T02:45:55.496Z,11.1
2019-03-26T02:46:56.717Z,11.2
2019-03-26T02:47:58.863Z,10.8
2019-03-26T02:49:00.104Z,10.6
2019-03-26T02:50:01.322Z,10.7
2019-03-26T02:51:02.559Z,10.6
2019-03-26T02:52:03.792Z,10.9
2019-03-26T02:53:08.478Z,10.9
2019-03-26T02:54:10.187Z,10.8
2019-03-26T02:55:11.426Z,10.8
2019-03-26T02:56:12.656Z,10.9
2019-03-26T02:57:14.120Z,11
2019-03-26T02:58:15.374Z,11
2019-03-26T02:59:16.637Z,10.7
2019-03-26T03:00:17.849Z,10.6
2019-03-26T03:01:19.079Z,10.5
2019-03-26T03:02:20.295Z,10.6
2019-03-26T03:03:21.532Z,10.4
2019-03-26T03:04:22.817Z,10.5
2019-03-26T03:05:34.758Z,10.3
2019-03-26T03:06:37.116Z,10.3
2019-03-26T03:07:38.353Z,10.4
2019-03-26T03:08:39.600Z,10.2
2019-03-26T03:09:41.184Z,10.1
2019-03-26T03:10:42.642Z,10
2019-03-26T03:11:43.872Z,10.1
2019-03-26T03:12:45.137Z,10.5
2019-03-26T03:13:46.368Z,10.5
2019-03-26T03:14:47.653Z,10.7
2019-03-26T03:15:49.114Z,10.3
2019-03-26T03:16:50.373Z,10.2
2019-03-26T03:17:51.583Z,10.6
2019-03-26T03:18:52.814Z,10.5
2019-03-26T03:19:54.178Z,10.3
2019-03-26T03:20:55.397Z,10.3
2019-03-26T03:21:56.649Z,10.4
2019-03-26T03:22:57.885Z,9.9
2019-03-26T03:23:59.390Z,10
2019-03-26T03:25:00.705Z,10.5
2019-03-26T03:26:01.930Z,10.2
2019-03-26T03:27:03.161Z,9.9
2019-03-26T03:28:04.489Z,10
2019-03-26T03:29:05.725Z,10.1
2019-03-26T03:30:07.154Z,10.5
2019-03-26T03:31:08.531Z,10.7
2019-03-26T03:32:11.871Z,10.9
2019-03-26T03:33:13.407Z,10.7
2019-03-26T03:34:14.679Z,11
2019-03-26T03:35:15.959Z,10.8
2019-03-26T03:36:17.199Z,10.8
2019-03-26T03:37:18.414Z,10.3
2019-03-26T03:38:19.644Z,10.5
2019-03-26T03:39:20.888Z,10.5
2019-03-26T03:40:22.554Z,10.7
2019-03-26T03:41:23.800Z,10.3
2019-03-26T03:42:25.035Z,10.1
2019-03-26T03:43:26.249Z,10.4
2019-03-26T03:44:27.503Z,10.6
2019-03-26T03:45:28.763Z,10.6
2019-03-26T03:46:30.033Z,10.4
2019-03-26T03:47:31.327Z,10.8
2019-03-26T03:48:32.565Z,10.8
2019-03-26T03:49:33.812Z,10.8
2019-03-26T03:50:35.069Z,10.7
2019-03-26T03:51:36.313Z,10.4
2019-03-26T03:52:37.536Z,10.3
2019-03-26T03:53:38.766Z,10.3
2019-03-26T03:54:39.988Z,10.4
2019-03-26T03:55:41.272Z,10.5
2019-03-26T03:56:42.522Z,10.4
2019-03-26T03:57:43.747Z,10.8
2019-03-26T03:58:44.965Z,10.8
2019-03-26T03:59:46.185Z,10.9
2019-03-26T04:00:47.469Z,10.6
2019-03-26T04:01:48.699Z,10.6
2019-03-26T04:02:49.923Z,10.7
2019-03-26T04:03:51.154Z,10.9
2019-03-26T04:04:52.363Z,10.9
2019-03-26T04:06:08.063Z,11.2
2019-03-26T04:07:11.123Z,11.1
2019-03-26T04:08:12.362Z,11.1
2019-03-26T04:09:13.741Z,11.2
2019-03-26T04:10:14.947Z,11.4
2019-03-26T04:11:16.279Z,11.1
2019-03-26T04:12:17.502Z,11.2
2019-03-26T04:13:18.740Z,10.9
2019-03-26T04:14:19.960Z,10.9
2019-03-26T04:15:21.173Z,11
2019-03-26T04:16:22.474Z,10.9
2019-03-26T04:17:23.686Z,10.6
2019-03-26T04:18:24.923Z,10.7
2019-03-26T04:19:26.183Z,11.1
2019-03-26T04:20:27.435Z,10.8
2019-03-26T04:21:28.686Z,10.7
2019-03-26T04:22:29.894Z,10.8
2019-03-26T04:23:31.142Z,10.7
2019-03-26T04:24:32.382Z,10.8
2019-03-26T04:25:33.623Z,10.9
2019-03-26T04:26:35.162Z,10.8
2019-03-26T04:27:36.406Z,10.5
2019-03-26T04:28:37.619Z,10.9
2019-03-26T04:29:38.862Z,10.9
2019-03-26T04:30:40.107Z,11
2019-03-26T04:31:41.405Z,10.9
2019-03-26T04:32:42.661Z,10.8
2019-03-26T04:33:44.980Z,10.6
2019-03-26T04:34:46.245Z,10.9
2019-03-26T04:35:47.488Z,10.9
2019-03-26T04:36:48.801Z,10.6
2019-03-26T04:37:50.091Z,10.4
2019-03-26T04:38:51.347Z,10.3
2019-03-26T04:39:52.633Z,10.4
2019-03-26T04:40:53.907Z,10.6
2019-03-26T04:41:55.537Z,10.3
2019-03-26T04:42:56.789Z,10.5
2019-03-26T04:43:58.043Z,10.8
2019-03-26T04:44:59.304Z,10.5
2019-03-26T04:46:00.525Z,10.5
2019-03-26T04:47:01.812Z,10.6
2019-03-26T04:48:03.074Z,10.4
2019-03-26T04:49:04.306Z,9.8
2019-03-26T04:50:05.547Z,9.6
2019-03-26T04:51:06.821Z,9.6
2019-03-26T04:52:08.100Z,10
2019-03-26T04:53:09.361Z,10.3
2019-03-26T04:54:10.597Z,10.5
2019-03-26T04:55:11.955Z,10.2
2019-03-26T04:56:13.198Z,10
2019-03-26T04:57:14.525Z,10.2
2019-03-26T04:58:15.796Z,10
2019-03-26T04:59:17.076Z,9.8
2019-03-26T05:00:18.412Z,9.7
2019-03-26T05:01:19.656Z,10
2019-03-26T05:02:20.956Z,10
2019-03-26T05:03:22.222Z,9.6
2019-03-26T05:04:23.477Z,9.8
2019-03-26T05:05:24.699Z,10.1
2019-03-26T05:06:37.351Z,10.4
2019-03-26T05:07:39.273Z,10.7
2019-03-26T05:08:40.510Z,10.4
2019-03-26T05:09:41.744Z,10.1
2019-03-26T05:10:42.980Z,10.2
2019-03-26T05:11:46.483Z,10.5
2019-03-26T05:12:48.078Z,10.4
2019-03-26T05:13:49.322Z,10.6
2019-03-26T05:14:50.578Z,10.6
2019-03-26T05:15:51.822Z,10.8
2019-03-26T05:16:53.076Z,10.9
2019-03-26T05:17:56.591Z,10.5
2019-03-26T05:18:58.120Z,10.4
2019-03-26T05:19:59.351Z,10.5
2019-03-26T05:21:00.583Z,10.3
2019-03-26T05:22:01.840Z,10.5
2019-03-26T05:23:03.115Z,10.6
2019-03-26T05:24:04.370Z,10.8
2019-03-26T05:25:05.624Z,10.7
2019-03-26T05:26:06.919Z,10.7
2019-03-26T05:27:08.168Z,10.7
2019-03-26T05:28:09.484Z,10.8
2019-03-26T05:29:10.720Z,11
2019-03-26T05:30:13.004Z,10.9
2019-03-26T05:31:14.249Z,10.4
2019-03-26T05:32:15.528Z,10.6
2019-03-26T05:33:16.806Z,10.5
2019-03-26T05:34:18.045Z,10.4
2019-03-26T05:35:19.364Z,10.4
2019-03-26T05:36:20.618Z,10.3
2019-03-26T05:37:21.876Z,10.5
2019-03-26T05:38:23.172Z,10.5
2019-03-26T05:39:24.445Z,10.6
2019-03-26T05:40:25.695Z,10.6
2019-03-26T05:41:26.956Z,10.6
2019-03-26T05:42:28.201Z,10.6
2019-03-26T05:43:29.656Z,10.6
2019-03-26T05:44:30.903Z,10.7
2019-03-26T05:45:32.136Z,10.6
2019-03-26T05:46:33.475Z,10.5
2019-03-26T05:47:36.793Z,10.2
2019-03-26T05:48:38.059Z,10.4
2019-03-26T05:49:39.299Z,10.5
2019-03-26T05:50:40.546Z,10.3
2019-03-26T05:51:41.909Z,10.2
2019-03-26T05:52:43.172Z,10.3
2019-03-26T05:53:44.457Z,10.3
2019-03-26T05:54:45.709Z,10.3
2019-03-26T05:55:47.240Z,9.9
2019-03-26T05:56:51.523Z,10.2
2019-03-26T05:57:52.761Z,10.1
2019-03-26T05:58:54.070Z,10.3
2019-03-26T06:00:10.513Z,10.2
2019-03-26T06:01:11.779Z,10.1
2019-03-26T06:02:14.360Z,10.1
2019-03-26T06:03:18.708Z,10.2
2019-03-26T06:04:23.237Z,10
2019-03-26T06:05:24.487Z,10.1
2019-03-26T06:06:27.871Z,10.2
2019-03-26T06:07:31.235Z,10.4
2019-03-26T06:08:32.677Z,10.4
2019-03-26T06:09:33.967Z,10.4
2019-03-26T06:10:37.395Z,10.6
2019-03-26T06:11:38.651Z,10.5
2019-03-26T06:12:39.891Z,10.6
2019-03-26T06:13:41.141Z,10.7
2019-03-26T06:14:42.742Z,10.6
2019-03-26T06:15:44.003Z,10.6
2019-03-26T06:16:45.275Z,10.6
2019-03-26T06:17:46.525Z,10.6
2019-03-26T06:18:49.876Z,10.4
2019-03-26T06:19:51.193Z,10.3
2019-03-26T06:20:52.555Z,10.5
2019-03-26T06:21:53.826Z,10.3
2019-03-26T06:22:55.967Z,10.3
2019-03-26T06:23:58.255Z,10.3
2019-03-26T06:24:59.541Z,10.2
2019-03-26T06:26:01.038Z,10.3
2019-03-26T06:27:02.295Z,10.3
2019-03-26T06:28:03.544Z,10.3
2019-03-26T06:29:04.791Z,10.2
2019-03-26T06:30:06.097Z,10.2
2019-03-26T06:31:07.341Z,10.5
2019-03-26T06:32:08.573Z,10.4
2019-03-26T06:33:09.820Z,10.4
2019-03-26T06:34:11.089Z,10.6
2019-03-26T06:35:13.183Z,10.6
2019-03-26T06:36:14.419Z,10.5
2019-03-26T06:37:17.961Z,10.5
2019-03-26T06:38:19.655Z,10.6
2019-03-26T06:39:21.059Z,10.5
2019-03-26T06:40:22.396Z,10.5
2019-03-26T06:41:23.649Z,10.4
2019-03-26T06:42:24.893Z,10.5
2019-03-26T06:43:26.291Z,10.6
2019-03-26T06:44:27.539Z,10.5
2019-03-26T06:45:29.117Z,10.5
2019-03-26T06:46:31.203Z,10.6
2019-03-26T06:47:32.456Z,10.7
2019-03-26T06:48:33.709Z,10.8
2019-03-26T06:49:34.949Z,11
2019-03-26T06:50:36.274Z,10.7
2019-03-26T06:51:37.503Z,10.2
2019-03-26T06:52:38.739Z,10.4
2019-03-26T06:53:40.262Z,10.4
2019-03-26T06:54:41.494Z,10.4
2019-03-26T06:55:42.868Z,10.1
2019-03-26T06:56:44.113Z,10.3
2019-03-26T06:57:45.352Z,10
2019-03-26T06:58:46.621Z,10.1
2019-03-26T06:59:48.121Z,10.1
2019-03-26T07:00:49.445Z,10.3
2019-03-26T07:01:57.815Z,10.2
2019-03-26T07:02:59.079Z,10.4
2019-03-26T07:04:00.317Z,11
2019-03-26T07:05:01.902Z,11.8
2019-03-26T07:06:03.186Z,12.3
2019-03-26T07:07:04.435Z,12.6
2019-03-26T07:08:05.676Z,12.8
2019-03-26T07:09:06.926Z,13
2019-03-26T07:10:08.174Z,13.2
2019-03-26T07:11:09.476Z,13.3
2019-03-26T07:12:13.091Z,13.1
2019-03-26T07:13:14.367Z,13.1
2019-03-26T07:14:15.931Z,13.2
2019-03-26T07:15:17.179Z,13.4
2019-03-26T07:16:18.830Z,13.4
2019-03-26T07:17:20.132Z,13.4
2019-03-26T07:18:21.378Z,13.4
2019-03-26T07:19:22.640Z,13.7
2019-03-26T07:20:23.878Z,13.9
2019-03-26T07:21:25.416Z,14.1
2019-03-26T07:22:27.950Z,14.1
2019-03-26T07:23:29.327Z,14.3
2019-03-26T07:24:31.270Z,14.4
2019-03-26T07:25:33.722Z,14.5
2019-03-26T07:26:35.033Z,14.6
2019-03-26T07:27:36.293Z,14.8
2019-03-26T07:28:37.555Z,14.9
2019-03-26T07:29:39.102Z,14.8
2019-03-26T07:30:40.352Z,14.9
2019-03-26T07:31:41.678Z,15
2019-03-26T07:32:43.014Z,15
2019-03-26T07:33:44.295Z,15
2019-03-26T07:34:46.762Z,15.1
2019-03-26T07:35:49.230Z,15.3
2019-03-26T07:36:50.672Z,15.4
2019-03-26T07:37:51.928Z,15.4
2019-03-26T07:38:55.617Z,15.4
2019-03-26T07:39:56.887Z,15.5
2019-03-26T07:40:58.160Z,15.5
2019-03-26T07:42:00.607Z,15.6
2019-03-26T07:43:01.971Z,15.6
2019-03-26T07:45:20.832Z,15.7
2019-03-26T07:46:23.638Z,15.8
2019-03-26T07:47:24.954Z,15.8
2019-03-26T07:48:26.428Z,15.7
2019-03-26T07:49:27.878Z,15.6
2019-03-26T07:50:29.126Z,15.7
2019-03-26T07:51:31.350Z,15.6
2019-03-26T07:52:32.623Z,15.7
2019-03-26T07:53:33.884Z,15.8
2019-03-26T07:54:36.492Z,15.8
2019-03-26T07:55:38.596Z,15.9
2019-03-26T07:56:44.330Z,16
2019-03-26T07:57:45.624Z,16
2019-03-26T07:58:47.002Z,16.1
2019-03-26T07:59:48.256Z,16.2
2019-03-26T08:00:51.536Z,16.1
2019-03-26T08:01:52.796Z,16.1
2019-03-26T08:02:55.135Z,16.3
2019-03-26T08:03:56.696Z,16.3
2019-03-26T08:04:57.946Z,16.3
2019-03-26T08:05:59.882Z,16.4
2019-03-26T08:07:01.126Z,16.4
2019-03-26T08:08:02.459Z,16.5
2019-03-26T08:09:03.723Z,16.5
2019-03-26T08:10:04.972Z,16.5
2019-03-26T08:11:06.530Z,16.6
2019-03-26T08:12:08.032Z,16.7
2019-03-26T08:13:09.348Z,16.8
2019-03-26T08:14:11.557Z,16.8
2019-03-26T08:15:13.092Z,16.9
2019-03-26T08:16:14.364Z,16.8
2019-03-26T08:17:15.666Z,16.7
2019-03-26T08:18:17.678Z,16.7
2019-03-26T08:19:18.946Z,16.7
2019-03-26T08:20:20.206Z,16.6
2019-03-26T08:21:21.446Z,16.5
2019-03-26T08:22:23.260Z,16.4
2019-03-26T08:23:25.702Z,16.4
2019-03-26T08:24:27.300Z,16.4
2019-03-26T08:25:28.564Z,16.4
2019-03-26T08:26:29.820Z,16.3
2019-03-26T08:27:31.052Z,16.3
2019-03-26T08:28:32.358Z,16.3
2019-03-26T08:29:33.862Z,16.3
2019-03-26T08:30:35.306Z,16.3
2019-03-26T08:31:36.577Z,16.3
2019-03-26T08:32:37.922Z,16.3
2019-03-26T08:33:39.238Z,16.2
2019-03-26T08:34:40.824Z,16.4
2019-03-26T08:35:42.204Z,16.4
2019-03-26T08:36:43.496Z,16.2
2019-03-26T08:37:44.758Z,16.4
2019-03-26T08:38:46.050Z,16.6
2019-03-26T08:39:47.461Z,16.9
2019-03-26T08:40:48.821Z,16.8
2019-03-26T08:41:50.421Z,17
2019-03-26T08:42:51.661Z,17.2
2019-03-26T08:43:52.956Z,17.5
2019-03-26T08:44:54.473Z,17.6
2019-03-26T08:46:00.552Z,17.5
2019-03-26T08:47:04.249Z,17.6
2019-03-26T08:48:07.676Z,17.5
2019-03-26T08:49:09.261Z,17.7
2019-03-26T08:50:10.496Z,17.7
2019-03-26T08:51:11.776Z,17.7
2019-03-26T08:52:16.066Z,17.5
2019-03-26T08:53:17.338Z,17.7
2019-03-26T08:54:18.649Z,17.7
2019-03-26T08:55:19.909Z,18
2019-03-26T08:56:23.586Z,18.1
2019-03-26T08:57:30.060Z,18.3
2019-03-26T08:58:31.324Z,18.3
2019-03-26T08:59:32.606Z,18.4
2019-03-26T09:00:33.868Z,18.3
2019-03-26T09:01:35.140Z,18.4
2019-03-26T09:02:36.386Z,18.2
2019-03-26T09:03:39.204Z,18.1
2019-03-26T09:04:40.480Z,18.1
2019-03-26T09:05:41.730Z,18.1
2019-03-26T09:06:43.365Z,18.2
2019-03-26T09:07:44.642Z,18.2
2019-03-26T09:08:46.986Z,18.1
2019-03-26T09:09:48.258Z,18
2019-03-26T09:10:52.179Z,18.2
2019-03-26T09:11:53.598Z,18.3
2019-03-26T09:12:54.858Z,18.2
2019-03-26T09:13:56.131Z,18.2
2019-03-26T09:15:00.636Z,18.1
2019-03-26T09:16:01.951Z,18.1
2019-03-26T09:17:03.209Z,18
2019-03-26T09:18:05.498Z,18.2
2019-03-26T09:19:06.752Z,18.2
2019-03-26T09:20:08.079Z,18.2
2019-03-26T09:21:12.306Z,18.2
2019-03-26T09:22:13.572Z,18.3
2019-03-26T09:23:17.377Z,18.4
2019-03-26T09:24:18.666Z,18.4
2019-03-26T09:25:20.065Z,18.4
2019-03-26T09:26:21.321Z,18.4
2019-03-26T09:27:25.568Z,18.4
2019-03-26T09:28:26.843Z,18.4
2019-03-26T09:29:28.368Z,18.3
2019-03-26T09:30:29.652Z,18.3
2019-03-26T09:31:30.897Z,18.4
2019-03-26T09:32:32.244Z,18.4
2019-03-26T09:33:34.713Z,18.4
2019-03-26T09:34:38.189Z,18.5
2019-03-26T09:35:39.544Z,18.4
2019-03-26T09:36:40.813Z,18.4
2019-03-26T09:37:42.098Z,18.4
2019-03-26T09:38:43.357Z,18.5
2019-03-26T09:39:44.618Z,18.4
2019-03-26T09:40:45.893Z,18.5
2019-03-26T09:41:47.191Z,18.5
2019-03-26T09:42:48.469Z,18.4
2019-03-26T09:43:49.733Z,18.4
2019-03-26T09:44:51.003Z,18.4
2019-03-26T09:45:52.453Z,18.4
2019-03-26T09:46:53.809Z,18.4
2019-03-26T09:47:55.154Z,18.5
2019-03-26T09:48:56.416Z,18.5
2019-03-26T09:49:57.709Z,18.5
2019-03-26T09:50:59.643Z,18.6
2019-03-26T09:52:00.923Z,18.5
2019-03-26T09:53:04.378Z,18.5
2019-03-26T09:54:05.883Z,18.5
2019-03-26T09:55:09.317Z,18.5
2019-03-26T09:56:11.909Z,18.4
2019-03-26T09:57:28.883Z,18.5
2019-03-26T09:58:32.598Z,18.5
2019-03-26T09:59:33.877Z,18.5
2019-03-26T10:00:35.495Z,18.6
2019-03-26T10:01:37.033Z,18.6
2019-03-26T10:02:38.593Z,18.6
2019-03-26T10:03:43.479Z,18.6
2019-03-26T10:04:44.772Z,18.6
2019-03-26T10:05:46.031Z,18.8
2019-03-26T10:06:53.591Z,18.8
2019-03-26T10:07:55.225Z,18.7
2019-03-26T10:08:56.520Z,18.6
2019-03-26T10:09:57.767Z,18.6
2019-03-26T10:10:59.046Z,18.6
2019-03-26T10:12:00.318Z,18.5
2019-03-26T10:13:01.589Z,18.6
2019-03-26T10:14:04.207Z,18.6
2019-03-26T10:15:05.721Z,18.6
2019-03-26T10:16:09.434Z,18.6
2019-03-26T10:17:11.910Z,18.7
2019-03-26T10:18:13.199Z,18.7
2019-03-26T10:19:16.822Z,18.8
2019-03-26T10:20:18.420Z,18.8
2019-03-26T10:21:19.659Z,18.9
2019-03-26T10:22:21.847Z,18.9
2019-03-26T10:23:25.437Z,18.8
2019-03-26T10:24:26.689Z,18.8
2019-03-26T10:25:27.983Z,18.8
2019-03-26T10:26:29.241Z,18.7
2019-03-26T10:27:35.040Z,18.6
2019-03-26T10:28:36.739Z,18.6
2019-03-26T10:29:38.003Z,18.6
2019-03-26T10:30:39.373Z,18.5
2019-03-26T10:31:43.101Z,18.5
2019-03-26T10:32:44.620Z,18.5
2019-03-26T10:33:45.909Z,18.5
2019-03-26T10:34:53.564Z,18.4
2019-03-26T10:35:57.378Z,18.4
2019-03-26T10:36:58.650Z,18.4
2019-03-26T10:37:59.967Z,18.4
2019-03-26T10:39:05.221Z,18.3
2019-03-26T10:40:06.895Z,18.4
2019-03-26T10:41:08.165Z,18.3
2019-03-26T10:42:09.619Z,18.3
2019-03-26T10:43:10.928Z,18.3
2019-03-26T10:44:12.435Z,18.3
2019-03-26T10:45:13.705Z,18.3
2019-03-26T10:46:15.255Z,18.2
2019-03-26T10:47:24.079Z,18.2
2019-03-26T10:48:25.380Z,18.2
2019-03-26T10:49:26.677Z,18.2
2019-03-26T10:50:28.204Z,18.2
2019-03-26T10:51:29.801Z,18.3
2019-03-26T10:52:34.214Z,18.3
2019-03-26T10:53:41.075Z,18.2
2019-03-26T10:54:45.845Z,18.2
2019-03-26T10:55:49.277Z,18.2
2019-03-26T10:56:50.540Z,18.1
2019-03-26T10:57:54.291Z,18.1
2019-03-26T10:58:56.665Z,18.1
2019-03-26T10:59:59.227Z,18.2
2019-03-26T11:01:05.553Z,18.2
2019-03-26T11:02:06.841Z,18.3
2019-03-26T11:03:12.703Z,18.3
2019-03-26T11:04:16.085Z,18.3
2019-03-26T11:05:17.631Z,18.3
2019-03-26T11:06:20.256Z,18.3
2019-03-26T11:07:21.513Z,18.3
2019-03-26T11:08:27.499Z,18.3
2019-03-26T11:09:28.797Z,18.4
2019-03-26T11:10:32.982Z,18.3
2019-03-26T11:11:34.313Z,18.3
2019-03-26T11:12:35.585Z,18.4
2019-03-26T11:13:59.353Z,18.3
2019-03-26T11:15:00.665Z,18.3
2019-03-26T11:16:02.253Z,18.3
2019-03-26T11:17:04.776Z,18.3
2019-03-26T11:18:08.247Z,18.2
2019-03-26T11:19:09.833Z,18.3
2019-03-26T11:20:11.147Z,18.3
2019-03-26T11:21:12.386Z,18.3
2019-03-26T11:22:13.635Z,18.3
2019-03-26T11:23:16.070Z,18.3
2019-03-26T11:24:18.841Z,18.3
2019-03-26T11:25:21.207Z,18.3
2019-03-26T11:26:22.963Z,18.2
2019-03-26T11:27:25.279Z,18.2
2019-03-26T11:28:26.797Z,18.3
2019-03-26T11:29:28.057Z,18.3
2019-03-26T11:30:30.471Z,18.2
2019-03-26T11:31:31.755Z,18.3
2019-03-26T11:32:36.135Z,18.2
2019-03-26T11:33:37.395Z,18.3
2019-03-26T11:34:38.657Z,18.3
2019-03-26T11:35:39.923Z,18.3
2019-03-26T11:36:41.596Z,18.3
2019-03-26T11:37:42.857Z,18.1
2019-03-26T11:38:48.301Z,18.1
2019-03-26T11:39:49.579Z,18.2
2019-03-26T11:40:50.886Z,18.2
2019-03-26T11:41:52.166Z,18.2
2019-03-26T11:42:53.448Z,18.2
2019-03-26T11:43:54.760Z,18.2
2019-03-26T11:44:59.178Z,18.2
2019-03-26T11:46:00.653Z,18.2
2019-03-26T11:47:01.919Z,18.2
2019-03-26T11:48:03.170Z,18.1
2019-03-26T11:49:04.782Z,18.1
2019-03-26T11:50:07.053Z,18.1
2019-03-26T11:51:08.656Z,18.2
2019-03-26T11:52:10.271Z,18.2
2019-03-26T11:53:11.515Z,18.2
2019-03-26T11:54:13.356Z,18.2
2019-03-26T11:55:14.851Z,18.2
2019-03-26T11:56:16.427Z,18.2
2019-03-26T11:57:18.774Z,18.1
2019-03-26T11:58:30.139Z,18.2
2019-03-26T11:59:32.772Z,18.2
2019-03-26T12:00:34.078Z,18.2
2019-03-26T12:01:35.360Z,18.2
2019-03-26T12:02:36.979Z,18.3
2019-03-26T12:03:38.360Z,18.3
2019-03-26T12:04:39.942Z,18.2
2019-03-26T12:05:41.210Z,18.3
2019-03-26T12:06:42.488Z,18.3
2019-03-26T12:07:43.759Z,18.3
2019-03-26T12:08:45.011Z,18.3
2019-03-26T12:09:46.844Z,18.3
2019-03-26T12:10:49.375Z,18.3
2019-03-26T12:11:53.191Z,18.3
2019-03-26T12:12:54.458Z,18.3
2019-03-26T12:13:55.722Z,18.2
2019-03-26T12:14:57.030Z,18.2
2019-03-26T12:15:58.313Z,18.2
2019-03-26T12:17:04.706Z,18.2
2019-03-26T12:18:08.042Z,18.3
2019-03-26T12:19:09.454Z,18.3
2019-03-26T12:20:10.718Z,18.3
2019-03-26T12:21:16.330Z,18.3
2019-03-26T12:22:17.604Z,18.4
2019-03-26T12:23:18.883Z,18.3
2019-03-26T12:24:20.360Z,18.1
2019-03-26T12:25:21.950Z,18.3
2019-03-26T12:26:24.092Z,18.4
2019-03-26T12:27:26.456Z,18.4
2019-03-26T12:28:31.310Z,18.3
2019-03-26T12:29:46.840Z,18.3
2019-03-26T12:30:50.382Z,18.4
2019-03-26T12:31:51.860Z,18.4
2019-03-26T12:32:53.452Z,18.4
2019-03-26T12:33:54.708Z,18.4
2019-03-26T12:34:55.946Z,18.4
2019-03-26T12:35:57.504Z,18.4
2019-03-26T12:36:58.784Z,18.3
2019-03-26T12:38:00.094Z,18.4
2019-03-26T12:39:01.406Z,18.4
2019-03-26T12:40:04.766Z,18.4
2019-03-26T12:41:08.233Z,18.4
2019-03-26T12:42:09.474Z,18.4
2019-03-26T12:43:13.279Z,18.3
2019-03-26T12:44:16.760Z,18.3
2019-03-26T12:45:18.000Z,18.3
2019-03-26T12:46:19.337Z,18.4
2019-03-26T12:47:22.124Z,18.4
2019-03-26T12:48:24.546Z,18.3
2019-03-26T12:49:25.803Z,18.4
2019-03-26T12:50:27.081Z,18.3
2019-03-26T12:51:28.339Z,18.3
2019-03-26T12:52:29.900Z,18.3
2019-03-26T12:53:32.205Z,18.3
2019-03-26T12:54:34.627Z,18.3
2019-03-26T12:55:36.221Z,18.3
2019-03-26T12:56:37.915Z,18.4
2019-03-26T12:57:39.292Z,18.3
2019-03-26T12:58:40.805Z,18.4
2019-03-26T12:59:42.297Z,18.4
2019-03-26T13:00:47.760Z,18.3
2019-03-26T13:01:50.051Z,18.3
2019-03-26T13:02:51.433Z,18.3
2019-03-26T13:03:55.431Z,18.2
2019-03-26T13:04:57.457Z,18.3
2019-03-26T13:05:58.705Z,18.2
2019-03-26T13:06:59.957Z,18.3
2019-03-26T13:08:01.650Z,18.4
2019-03-26T13:09:02.954Z,18.2
2019-03-26T13:10:13.145Z,18.3
2019-03-26T13:11:17.191Z,18.2
2019-03-26T13:12:19.622Z,18.3
2019-03-26T13:13:20.886Z,18.3
2019-03-26T13:14:22.685Z,18.2
2019-03-26T13:15:23.955Z,18.2
2019-03-26T13:16:27.373Z,18.2
2019-03-26T13:17:33.504Z,18.2
2019-03-26T13:18:34.787Z,18.3
2019-03-26T13:19:44.844Z,18.3
2019-03-26T13:20:47.648Z,18.2
2019-03-26T13:21:49.393Z,18.3
2019-03-26T13:22:50.664Z,18.2
2019-03-26T13:23:51.949Z,18.2
2019-03-26T13:24:53.236Z,18.1
2019-03-26T13:25:54.503Z,18.1
2019-03-26T13:26:55.771Z,18.1
2019-03-26T13:27:58.109Z,18.1
2019-03-26T13:29:00.412Z,18.2
2019-03-26T13:30:01.719Z,18.2
2019-03-26T13:31:02.972Z,18.2
2019-03-26T13:32:04.217Z,18.3
2019-03-26T13:33:05.798Z,18.2
2019-03-26T13:34:07.089Z,18.2
2019-03-26T13:35:10.974Z,18.1
2019-03-26T13:36:12.292Z,18.1
2019-03-26T13:37:13.741Z,18.1
2019-03-26T13:38:15.370Z,18.1
2019-03-26T13:39:19.069Z,18.1
2019-03-26T13:40:26.885Z,18.1
2019-03-26T13:41:31.462Z,18.1
2019-03-26T13:42:32.736Z,18.1
2019-03-26T13:43:35.393Z,18.1
2019-03-26T13:44:37.125Z,18.1
2019-03-26T13:45:38.427Z,18.1
2019-03-26T13:46:39.705Z,18.1
2019-03-26T13:47:43.549Z,18.1
2019-03-26T13:48:45.446Z,18